Time;durP1;ratioP1;P1;durP2;ratioP2;P2;SDS_P1;SDS_P2;PMS_P1;PMS_P2;Temp;Humidity;BMP_temperature;BMP_pressure;BME280_temperature;BME280_humidity;BME280_pressure;Samples;Min_cycle;Max_cycle;Signal;HPM_P1;HPM_P2
2022/11/06 00:00:12;;;;;;;;;;;16.10;95.50;;;;;;5110863;28;19999;-90
2022/11/06 00:02:38;;;;;;;;;;;16.10;95.50;;;;;;5111614;28;20265;-90
2022/11/06 00:07:48;;;;;;;;;;;16.00;95.50;;;;;;5113092;28;19922;-90
2022/11/06 00:10:14;;;;;;;;;;;16.00;95.50;;;;;;5112248;28;19915;-90
2022/11/06 00:12:40;;;;;;;;;;;16.00;95.40;;;;;;5111824;28;19912;-89
2022/11/06 00:15:06;;;;;;;;;;;16.00;95.40;;;;;;5111752;28;19915;-89
2022/11/06 00:17:31;;;;;;;;;;;16.10;95.40;;;;;;5113848;28;19931;-89
2022/11/06 00:19:57;;;;;;;;;;;16.10;95.40;;;;;;5113853;28;20154;-89
2022/11/06 00:22:23;;;;;;;;;;;16.10;95.40;;;;;;5113549;28;19957;-89
2022/11/06 00:24:48;;;;;;;;;;;16.10;95.40;;;;;;5114906;28;19908;-90
2022/11/06 00:27:14;;;;;;;;;;;16.10;95.30;;;;;;5113231;28;19919;-89
2022/11/06 00:29:40;;;;;;;;;;;16.00;95.30;;;;;;5113670;28;19919;-89
2022/11/06 00:32:06;;;;;;;;;;;16.00;95.30;;;;;;5114042;28;20155;-89
2022/11/06 00:34:31;;;;;;;;;;;16.00;95.20;;;;;;5114483;28;19915;-90
2022/11/06 00:36:57;;;;;;;;;;;16.10;95.30;;;;;;5114577;28;20321;-90
2022/11/06 00:39:23;;;;;;;;;;;16.00;95.20;;;;;;5114856;28;20249;-89
2022/11/06 00:41:49;;;;;;;;;;;16.10;95.20;;;;;;5114660;28;19907;-90
2022/11/06 00:44:14;;;;;;;;;;;16.00;95.20;;;;;;5113360;28;19923;-90
2022/11/06 00:46:40;;;;;;;;;;;16.00;95.20;;;;;;5113760;28;20084;-90
2022/11/06 00:49:05;;;;;;;;;;;16.10;95.20;;;;;;5113583;28;19951;-89
2022/11/06 00:51:32;;;;;;;;;;;16.00;95.20;;;;;;5112838;28;19977;-90
2022/11/06 00:54:00;;;;;;;;;;;16.00;95.10;;;;;;5112593;28;20161;-90
2022/11/06 00:56:26;;;;;;;;;;;16.00;95.10;;;;;;5112449;28;20245;-90
2022/11/06 00:58:51;;;;;;;;;;;16.00;95.10;;;;;;5111476;28;19916;-89
2022/11/06 01:01:18;;;;;;;;;;;16.10;95.10;;;;;;5112242;28;19908;-89
2022/11/06 01:03:46;;;;;;;;;;;16.00;95.00;;;;;;5111419;28;19911;-89
2022/11/06 01:06:18;;;;;;;;;;;16.00;95.00;;;;;;5114053;28;19955;-90
2022/11/06 01:08:44;;;;;;;;;;;16.00;95.00;;;;;;5113453;28;19912;-89
2022/11/06 01:11:14;;;;;;;;;;;16.00;95.00;;;;;;5113712;28;19912;-90
2022/11/06 01:13:42;;;;;;;;;;;16.00;94.90;;;;;;5113701;28;19943;-90
2022/11/06 01:16:10;;;;;;;;;;;16.00;94.90;;;;;;5113885;28;19916;-89
2022/11/06 01:18:36;;;;;;;;;;;16.00;94.90;;;;;;5112810;28;20197;-90
2022/11/06 01:21:03;;;;;;;;;;;16.00;94.90;;;;;;5113244;28;19908;-89
2022/11/06 01:23:29;;;;;;;;;;;16.00;94.80;;;;;;5113472;28;20348;-90
2022/11/06 01:25:55;;;;;;;;;;;16.00;94.80;;;;;;5114197;28;19998;-90
2022/11/06 01:28:21;;;;;;;;;;;16.00;94.80;;;;;;5117883;28;19907;-90
2022/11/06 01:30:46;;;;;;;;;;;16.00;94.80;;;;;;5117362;28;19922;-90
2022/11/06 01:33:12;;;;;;;;;;;15.90;94.70;;;;;;5118678;28;20167;-90
2022/11/06 01:35:43;;;;;;;;;;;16.00;94.80;;;;;;5118809;28;20288;-90
2022/11/06 01:38:08;;;;;;;;;;;16.00;94.70;;;;;;5117907;28;19916;-90
2022/11/06 01:40:41;;;;;;;;;;;16.00;94.60;;;;;;5119325;28;20246;-90
2022/11/06 01:43:14;;;;;;;;;;;15.90;94.60;;;;;;5117684;28;19911;-89
2022/11/06 01:45:41;;;;;;;;;;;15.90;94.50;;;;;;5118054;28;19908;-90
2022/11/06 01:48:07;;;;;;;;;;;15.90;94.60;;;;;;5117632;28;20225;-89
2022/11/06 01:50:33;;;;;;;;;;;15.90;94.50;;;;;;5116052;28;20030;-89
2022/11/06 01:53:01;;;;;;;;;;;15.90;94.50;;;;;;5117846;28;19954;-90
2022/11/06 01:55:29;;;;;;;;;;;15.90;94.50;;;;;;5118910;28;20280;-89
2022/11/06 01:57:56;;;;;;;;;;;15.90;94.50;;;;;;5117355;28;19916;-90
2022/11/06 02:00:21;;;;;;;;;;;15.90;94.50;;;;;;5117581;28;20159;-91
2022/11/06 02:02:47;;;;;;;;;;;15.90;94.40;;;;;;5116524;28;19955;-90
2022/11/06 02:05:13;;;;;;;;;;;15.80;94.40;;;;;;5114086;28;20041;-90
2022/11/06 02:07:39;;;;;;;;;;;15.90;94.40;;;;;;5115479;28;20297;-90
2022/11/06 02:10:05;;;;;;;;;;;15.90;94.40;;;;;;5117142;28;19985;-90
2022/11/06 02:12:49;;;;;;;;;;;15.90;94.40;;;;;;5116439;28;19908;-89
2022/11/06 02:15:20;;;;;;;;;;;15.80;94.30;;;;;;5115910;28;19916;-89
2022/11/06 02:17:49;;;;;;;;;;;15.80;94.30;;;;;;5116492;28;19915;-90
2022/11/06 02:20:15;;;;;;;;;;;15.80;94.40;;;;;;5116156;28;20164;-90
2022/11/06 02:22:46;;;;;;;;;;;15.80;94.30;;;;;;5115864;28;19912;-89
2022/11/06 02:25:23;;;;;;;;;;;15.80;94.30;;;;;;5117353;28;20285;-89
2022/11/06 02:27:52;;;;;;;;;;;15.80;94.30;;;;;;5116105;28;19922;-89
2022/11/06 02:30:17;;;;;;;;;;;15.80;94.40;;;;;;5116847;28;19938;-90
2022/11/06 02:32:45;;;;;;;;;;;15.80;94.30;;;;;;5117234;28;20189;-89
2022/11/06 02:35:19;;;;;;;;;;;15.80;94.30;;;;;;5118136;28;20225;-89
2022/11/06 02:37:46;;;;;;;;;;;15.80;94.30;;;;;;5118407;28;19908;-89
2022/11/06 02:40:13;;;;;;;;;;;15.70;94.20;;;;;;5118439;28;19940;-90
2022/11/06 02:42:40;;;;;;;;;;;15.80;94.30;;;;;;5117612;28;19918;-90
2022/11/06 02:45:08;;;;;;;;;;;15.70;94.30;;;;;;5117611;28;19908;-89
2022/11/06 02:47:34;;;;;;;;;;;15.70;94.20;;;;;;5115101;28;19911;-90
2022/11/06 02:50:04;;;;;;;;;;;15.70;94.30;;;;;;5116258;28;19907;-90
2022/11/06 02:52:38;;;;;;;;;;;15.70;94.30;;;;;;5115887;28;19919;-90
2022/11/06 02:55:13;;;;;;;;;;;15.70;94.30;;;;;;5115027;28;19953;-90
2022/11/06 02:57:41;;;;;;;;;;;15.60;94.30;;;;;;5115465;28;19908;-89
2022/11/06 03:00:09;;;;;;;;;;;15.60;94.30;;;;;;5113932;28;20169;-89
2022/11/06 03:02:39;;;;;;;;;;;15.60;94.30;;;;;;5114652;28;20304;-89
2022/11/06 03:05:10;;;;;;;;;;;15.60;94.50;;;;;;5115575;28;19945;-89
2022/11/06 03:07:54;;;;;;;;;;;15.70;94.40;;;;;;5117020;28;20034;-89
2022/11/06 03:10:20;;;;;;;;;;;16.10;93.50;;;;;;5115929;28;20281;-90
2022/11/06 03:13:04;;;;;;;;;;;16.60;91.80;;;;;;5116738;28;19912;-89
2022/11/06 03:15:34;;;;;;;;;;;17.00;90.30;;;;;;5115903;28;19915;-89
2022/11/06 03:18:06;;;;;;;;;;;17.40;87.70;;;;;;5116364;28;19920;-89
2022/11/06 03:20:35;;;;;;;;;;;17.60;85.10;;;;;;5117232;28;19908;-89
2022/11/06 03:23:23;;;;;;;;;;;17.80;83.60;;;;;;5116656;28;19968;-90
2022/11/06 03:25:55;;;;;;;;;;;18.00;82.10;;;;;;5117093;28;19947;-90
2022/11/06 03:28:38;;;;;;;;;;;18.10;80.90;;;;;;5116657;28;20002;-90
2022/11/06 03:31:06;;;;;;;;;;;18.20;80.20;;;;;;5116230;28;20189;-90
2022/11/06 03:33:31;;;;;;;;;;;18.20;79.50;;;;;;5117902;28;19908;-90
2022/11/06 03:36:00;;;;;;;;;;;18.20;79.00;;;;;;5117509;28;20050;-90
2022/11/06 03:38:37;;;;;;;;;;;18.20;79.00;;;;;;5115920;28;19957;-89
2022/11/06 03:41:08;;;;;;;;;;;18.20;79.00;;;;;;5116536;28;20185;-89
2022/11/06 03:43:35;;;;;;;;;;;18.10;79.90;;;;;;5115888;28;19972;-90
2022/11/06 03:46:01;;;;;;;;;;;18.00;79.70;;;;;;5115990;28;19916;-89
2022/11/06 03:48:35;;;;;;;;;;;17.90;80.30;;;;;;5116383;28;20010;-89
2022/11/06 03:51:00;;;;;;;;;;;17.80;80.90;;;;;;5115463;28;20209;-90
2022/11/06 03:53:29;;;;;;;;;;;17.70;81.40;;;;;;5116438;28;20458;-90
2022/11/06 03:55:57;;;;;;;;;;;17.70;81.90;;;;;;5115737;28;19972;-89
2022/11/06 03:58:24;;;;;;;;;;;17.60;82.40;;;;;;5115889;28;19990;-89
2022/11/06 04:00:51;;;;;;;;;;;17.50;82.90;;;;;;5114790;28;20022;-90
2022/11/06 04:03:22;;;;;;;;;;;17.40;83.60;;;;;;5115488;28;20192;-89
2022/11/06 04:05:51;;;;;;;;;;;17.40;84.20;;;;;;5115934;28;19908;-90
2022/11/06 04:13:56;;;;;;;;;;;17.10;86.00;;;;;;5116370;28;19918;-91
2022/11/06 04:16:22;;;;;;;;;;;17.00;86.40;;;;;;5115268;28;20275;-90
2022/11/06 04:18:48;;;;;;;;;;;16.90;87.10;;;;;;5115469;28;19947;-91
2022/11/06 04:21:26;;;;;;;;;;;16.90;87.30;;;;;;5115210;28;19955;-90
2022/11/06 04:27:06;;;;;;;;;;;16.80;88.30;;;;;;5116227;28;19915;-89
2022/11/06 04:29:37;;;;;;;;;;;16.70;88.80;;;;;;5111451;28;19908;-90
2022/11/06 04:32:17;;;;;;;;;;;16.60;89.20;;;;;;5115235;28;19991;-90
2022/11/06 04:34:47;;;;;;;;;;;16.60;89.60;;;;;;5115240;28;19968;-89
2022/11/06 04:37:31;;;;;;;;;;;16.50;89.90;;;;;;5115079;28;19908;-89
2022/11/06 04:40:10;;;;;;;;;;;16.40;90.10;;;;;;5113510;28;19907;-90
2022/11/06 04:42:43;;;;;;;;;;;16.40;90.30;;;;;;5113641;28;19912;-90
2022/11/06 04:45:15;;;;;;;;;;;16.30;90.40;;;;;;5113756;28;20361;-90
2022/11/06 04:47:41;;;;;;;;;;;16.30;90.70;;;;;;5114295;28;19962;-89
2022/11/06 04:50:08;;;;;;;;;;;16.30;90.80;;;;;;5114600;28;19908;-90
2022/11/06 04:52:35;;;;;;;;;;;16.20;90.90;;;;;;5116655;28;20162;-90
2022/11/06 04:55:01;;;;;;;;;;;16.20;90.90;;;;;;5114135;28;20006;-89
2022/11/06 04:57:27;;;;;;;;;;;16.20;90.90;;;;;;5115769;28;20004;-90
2022/11/06 04:59:52;;;;;;;;;;;16.20;90.50;;;;;;5114929;28;20342;-90
2022/11/06 05:02:19;;;;;;;;;;;16.30;90.50;;;;;;5118243;28;19919;-89
2022/11/06 05:04:45;;;;;;;;;;;16.40;90.20;;;;;;5119312;28;19996;-89
2022/11/06 05:07:11;;;;;;;;;;;16.40;90.00;;;;;;5119362;28;20254;-89
2022/11/06 05:09:37;;;;;;;;;;;16.50;89.20;;;;;;5118511;28;20192;-90
2022/11/06 05:12:03;;;;;;;;;;;16.60;88.40;;;;;;5119502;28;20266;-89
2022/11/06 05:14:28;;;;;;;;;;;16.80;87.60;;;;;;5119744;28;19999;-89
2022/11/06 05:16:54;;;;;;;;;;;16.90;86.70;;;;;;5119841;28;20258;-90
2022/11/06 05:19:19;;;;;;;;;;;16.90;86.40;;;;;;5118338;28;19908;-90
2022/11/06 05:24:29;;;;;;;;;;;17.10;84.20;;;;;;5117799;28;19995;-89
2022/11/06 05:26:54;;;;;;;;;;;17.10;83.50;;;;;;5118961;28;19998;-89
2022/11/06 05:29:20;;;;;;;;;;;17.10;83.50;;;;;;5118990;28;20010;-89
2022/11/06 05:31:46;;;;;;;;;;;17.10;82.90;;;;;;5118553;28;20010;-90
2022/11/06 05:34:12;;;;;;;;;;;17.10;83.10;;;;;;5118764;28;19911;-89
2022/11/06 05:36:38;;;;;;;;;;;17.10;83.30;;;;;;5119613;28;19908;-89
2022/11/06 05:39:04;;;;;;;;;;;17.00;83.10;;;;;;5118365;28;19915;-89
2022/11/06 05:41:30;;;;;;;;;;;17.00;83.60;;;;;;5117920;28;19972;-90
2022/11/06 05:43:56;;;;;;;;;;;16.90;84.00;;;;;;5117203;28;19912;-90
2022/11/06 05:46:22;;;;;;;;;;;16.90;83.70;;;;;;5118614;28;19908;-89
2022/11/06 05:48:47;;;;;;;;;;;16.90;84.40;;;;;;5118912;28;19964;-90
2022/11/06 05:51:13;;;;;;;;;;;16.80;84.60;;;;;;5118431;28;19943;-90
2022/11/06 05:53:38;;;;;;;;;;;16.80;85.10;;;;;;5118377;28;20018;-89
2022/11/06 05:56:04;;;;;;;;;;;16.70;85.30;;;;;;5119240;28;19919;-90
2022/11/06 05:58:30;;;;;;;;;;;16.70;85.70;;;;;;5119118;28;19908;-90
2022/11/06 06:00:56;;;;;;;;;;;16.60;86.30;;;;;;5116500;28;20026;-89
2022/11/06 06:03:23;;;;;;;;;;;16.50;86.20;;;;;;5115510;28;19919;-90
2022/11/06 06:05:49;;;;;;;;;;;16.50;86.80;;;;;;5116420;28;19918;-89
2022/11/06 06:08:15;;;;;;;;;;;16.50;87.70;;;;;;5114700;28;20233;-90
2022/11/06 06:10:41;;;;;;;;;;;16.40;87.20;;;;;;5116081;28;19923;-89
2022/11/06 06:13:07;;;;;;;;;;;16.40;87.50;;;;;;5114927;28;19918;-89
2022/11/06 06:15:32;;;;;;;;;;;16.30;87.70;;;;;;5116525;28;19926;-89
2022/11/06 06:17:58;;;;;;;;;;;16.30;87.50;;;;;;5117981;28;20284;-91
2022/11/06 06:20:24;;;;;;;;;;;16.30;87.90;;;;;;5116955;28;20281;-90
2022/11/06 06:22:56;;;;;;;;;;;16.30;87.90;;;;;;5116369;28;19918;-88
2022/11/06 06:25:23;;;;;;;;;;;16.20;88.30;;;;;;5115613;28;19908;-90
2022/11/06 06:27:48;;;;;;;;;;;16.20;88.40;;;;;;5116842;28;20260;-89
2022/11/06 06:30:14;;;;;;;;;;;16.20;88.40;;;;;;5116707;28;20353;-90
2022/11/06 06:32:40;;;;;;;;;;;16.20;88.70;;;;;;5114971;28;19907;-89
2022/11/06 06:35:06;;;;;;;;;;;16.20;88.70;;;;;;5113795;28;19965;-91
2022/11/06 06:37:31;;;;;;;;;;;16.30;88.70;;;;;;5115310;28;19918;-89
2022/11/06 06:39:57;;;;;;;;;;;16.30;88.20;;;;;;5115760;28;19973;-88
2022/11/06 06:42:23;;;;;;;;;;;16.30;87.90;;;;;;5115463;28;19911;-89
2022/11/06 06:44:48;;;;;;;;;;;16.40;87.60;;;;;;5115073;28;19968;-89
2022/11/06 06:47:15;;;;;;;;;;;16.40;87.40;;;;;;5116145;28;19951;-90
2022/11/06 06:49:42;;;;;;;;;;;16.40;86.90;;;;;;5114516;28;19908;-90
2022/11/06 06:52:08;;;;;;;;;;;16.50;86.40;;;;;;5114577;28;19951;-90
2022/11/06 06:54:34;;;;;;;;;;;16.60;85.90;;;;;;5115380;28;19915;-89
2022/11/06 06:56:59;;;;;;;;;;;16.60;85.50;;;;;;5114321;28;19907;-89
2022/11/06 06:59:26;;;;;;;;;;;16.70;85.10;;;;;;5115597;28;19920;-90
2022/11/06 07:01:52;;;;;;;;;;;16.70;84.70;;;;;;5115306;28;19931;-90
2022/11/06 07:04:18;;;;;;;;;;;16.70;84.50;;;;;;5115392;28;19907;-89
2022/11/06 07:06:43;;;;;;;;;;;16.70;84.10;;;;;;5115939;28;19915;-90
2022/11/06 07:09:09;;;;;;;;;;;16.80;83.70;;;;;;5116332;28;19908;-90
2022/11/06 07:11:34;;;;;;;;;;;16.80;83.10;;;;;;5115420;28;19911;-90
2022/11/06 07:14:00;;;;;;;;;;;16.90;82.80;;;;;;5116479;28;19907;-90
2022/11/06 07:16:26;;;;;;;;;;;16.90;82.60;;;;;;5116127;28;19995;-89
2022/11/06 07:18:52;;;;;;;;;;;16.90;82.50;;;;;;5115953;28;20204;-90
2022/11/06 07:21:17;;;;;;;;;;;16.90;82.20;;;;;;5116616;28;19967;-90
2022/11/06 07:23:43;;;;;;;;;;;16.90;82.00;;;;;;5115475;28;19919;-90
2022/11/06 07:26:09;;;;;;;;;;;16.90;82.00;;;;;;5114566;28;19908;-90
2022/11/06 07:28:34;;;;;;;;;;;16.90;82.00;;;;;;5115048;28;20154;-89
2022/11/06 07:31:01;;;;;;;;;;;16.90;82.10;;;;;;5115120;28;19988;-90
2022/11/06 07:33:27;;;;;;;;;;;16.90;81.90;;;;;;5114166;28;20269;-89
2022/11/06 07:35:54;;;;;;;;;;;16.90;81.90;;;;;;5114683;28;20223;-89
2022/11/06 07:38:19;;;;;;;;;;;16.90;81.80;;;;;;5115703;28;19908;-89
2022/11/06 07:40:45;;;;;;;;;;;16.90;82.10;;;;;;5115740;28;19916;-89
2022/11/06 07:43:11;;;;;;;;;;;17.00;81.80;;;;;;5115548;28;19903;-89
2022/11/06 07:45:37;;;;;;;;;;;17.30;79.80;;;;;;5115532;28;20119;-90
2022/11/06 07:48:03;;;;;;;;;;;17.50;78.60;;;;;;5115953;28;20265;-89
2022/11/06 07:50:30;;;;;;;;;;;17.60;77.80;;;;;;5115407;28;19923;-90
2022/11/06 07:52:56;;;;;;;;;;;18.00;75.70;;;;;;5114594;28;20296;-91
2022/11/06 07:55:23;;;;;;;;;;;19.10;70.50;;;;;;5115278;28;19907;-89
2022/11/06 07:57:48;;;;;;;;;;;20.00;65.20;;;;;;5114448;28;19943;-90
2022/11/06 08:00:14;;;;;;;;;;;20.60;61.00;;;;;;5114605;28;19974;-90
2022/11/06 08:02:40;;;;;;;;;;;21.20;59.00;;;;;;5113157;28;19918;-91
2022/11/06 08:05:05;;;;;;;;;;;21.60;57.80;;;;;;5114168;28;19939;-89
2022/11/06 08:07:31;;;;;;;;;;;22.00;56.70;;;;;;5113809;28;19908;-91
2022/11/06 08:09:57;;;;;;;;;;;22.30;55.70;;;;;;5113792;28;19996;-90
2022/11/06 08:12:22;;;;;;;;;;;22.60;54.90;;;;;;5112917;28;19911;-89
2022/11/06 08:14:48;;;;;;;;;;;22.90;54.20;;;;;;5112383;28;19958;-90
2022/11/06 08:17:14;;;;;;;;;;;23.10;53.60;;;;;;5113385;28;19907;-90
2022/11/06 08:19:40;;;;;;;;;;;23.30;53.00;;;;;;5112918;28;20492;-89
2022/11/06 08:22:05;;;;;;;;;;;23.50;52.40;;;;;;5111383;28;19907;-89
2022/11/06 08:24:31;;;;;;;;;;;23.70;51.90;;;;;;5111519;28;19908;-90
2022/11/06 08:26:57;;;;;;;;;;;23.90;51.50;;;;;;5111598;28;19916;-90
2022/11/06 08:29:23;;;;;;;;;;;24.10;51.00;;;;;;5111589;28;20166;-90
2022/11/06 08:31:49;;;;;;;;;;;24.40;50.60;;;;;;5111682;28;20284;-90
2022/11/06 08:34:14;;;;;;;;;;;24.60;50.10;;;;;;5111410;28;19908;-90
2022/11/06 08:36:44;;;;;;;;;;;24.70;50.40;;;;;;5110870;28;19907;-91
2022/11/06 08:39:11;;;;;;;;;;;24.70;50.10;;;;;;5109640;28;20197;-89
2022/11/06 08:41:37;;;;;;;;;;;24.70;50.50;;;;;;5111038;28;20014;-89
2022/11/06 08:44:03;;;;;;;;;;;24.70;50.20;;;;;;5123252;22;19937;-9
2022/11/06 08:46:28;;;;;;;;;;;24.80;50.30;;;;;;5111604;28;20189;-10
2022/11/06 08:48:54;;;;;;;;;;;24.90;50.40;;;;;;5112760;28;20023;-9
2022/11/06 08:51:19;;;;;;;;;;;24.90;50.30;;;;;;5113386;28;19912;-10
2022/11/06 08:53:45;;;;;;;;;;;24.90;50.30;;;;;;5113358;28;20411;-11
2022/11/06 08:56:11;;;;;;;;;;;25.00;50.20;;;;;;5111992;28;19908;-10
2022/11/06 08:58:36;;;;;;;;;;;25.10;50.10;;;;;;5111618;28;20016;-10
2022/11/06 09:01:05;;;;;;;;;;;25.10;50.00;;;;;;5112307;28;19915;-11
2022/11/06 09:03:31;;;;;;;;;;;25.10;49.90;;;;;;5113992;28;19916;-10
2022/11/06 09:05:56;;;;;;;;;;;25.20;49.90;;;;;;5112730;28;19924;-11
2022/11/06 09:08:23;;;;;;;;;;;25.20;49.80;;;;;;5112970;28;19919;-11
2022/11/06 09:10:48;;;;;;;;;;;25.20;49.80;;;;;;5112546;28;19912;-10
2022/11/06 09:13:14;;;;;;;;;;;25.30;49.70;;;;;;5111638;28;19964;-10
2022/11/06 09:15:40;;;;;;;;;;;25.10;49.50;;;;;;5111214;28;19915;-10
2022/11/06 09:18:06;;;;;;;;;;;25.20;49.40;;;;;;5112357;28;19965;-10
2022/11/06 09:20:31;;;;;;;;;;;25.20;49.20;;;;;;5110579;28;19909;-11
2022/11/06 09:23:01;;;;;;;;;;;24.90;49.10;;;;;;5111114;28;19907;-10
2022/11/06 09:25:26;;;;;;;;;;;23.90;49.80;;;;;;5110358;28;20306;-10
2022/11/06 09:27:52;;;;;;;;;;;23.20;51.00;;;;;;5109898;28;19907;-9
2022/11/06 09:30:19;;;;;;;;;;;22.50;52.00;;;;;;5110669;28;19922;-9
2022/11/06 09:33:04;;;;;;;;;;;21.90;53.00;;;;;;5109590;28;19908;-11
2022/11/06 09:35:31;;;;;;;;;;;21.40;54.10;;;;;;5111859;28;19918;-11
2022/11/06 09:38:01;;;;;;;;;;;21.00;55.20;;;;;;5111519;28;20366;-9
2022/11/06 09:40:29;;;;;;;;;;;20.80;56.10;;;;;;5109690;28;19926;-10
2022/11/06 09:42:55;;;;;;;;;;;20.60;56.90;;;;;;5109408;28;19915;-9
2022/11/06 09:45:23;;;;;;;;;;;20.40;57.50;;;;;;5110792;28;19923;-9
2022/11/06 09:47:52;;;;;;;;;;;20.30;58.20;;;;;;5112487;28;20122;-8
2022/11/06 09:50:20;;;;;;;;;;;20.20;58.80;;;;;;5112654;28;19908;-9
2022/11/06 09:52:51;;;;;;;;;;;20.10;59.20;;;;;;5114161;28;19951;-9
2022/11/06 09:55:19;;;;;;;;;;;20.10;59.50;;;;;;5112334;28;20010;-10
2022/11/06 09:57:56;;;;;;;;;;;20.10;60.00;;;;;;5112046;28;20187;-10
2022/11/06 10:00:21;;;;;;;;;;;20.00;60.60;;;;;;5111522;28;19923;-9
2022/11/06 10:02:49;;;;;;;;;;;19.90;61.30;;;;;;5112237;28;19908;-8
2022/11/06 10:05:30;;;;;;;;;;;19.80;61.90;;;;;;5111982;28;19918;-10
2022/11/06 10:08:00;;;;;;;;;;;19.70;62.70;;;;;;5113464;28;19908;-10
2022/11/06 10:10:29;;;;;;;;;;;19.70;63.60;;;;;;5113935;28;19958;-9
2022/11/06 10:12:54;;;;;;;;;;;19.60;64.10;;;;;;5113017;28;20192;-10
2022/11/06 10:15:23;;;;;;;;;;;19.60;64.70;;;;;;5112946;28;20366;-12
2022/11/06 10:18:04;;;;;;;;;;;19.50;65.30;;;;;;5113266;28;19907;-10
2022/11/06 10:20:32;;;;;;;;;;;19.50;66.00;;;;;;5112703;28;19998;-10
2022/11/06 10:22:57;;;;;;;;;;;19.40;66.80;;;;;;5110300;28;19908;-9
2022/11/06 10:25:31;;;;;;;;;;;19.30;67.40;;;;;;5110798;28;19942;-8
2022/11/06 10:28:01;;;;;;;;;;;19.20;68.10;;;;;;5111527;28;20150;-10
2022/11/06 10:30:32;;;;;;;;;;;19.10;69.00;;;;;;5113388;28;19976;-9
2022/11/06 10:33:20;;;;;;;;;;;19.10;69.80;;;;;;5111296;28;19918;-9
2022/11/06 10:35:51;;;;;;;;;;;19.00;70.50;;;;;;5105219;28;19908;-9
2022/11/06 10:38:33;;;;;;;;;;;18.90;71.00;;;;;;5113104;28;19918;-11
2022/11/06 10:40:59;;;;;;;;;;;18.90;71.40;;;;;;5111982;28;20254;-9
2022/11/06 10:43:37;;;;;;;;;;;18.90;71.70;;;;;;5112714;28;19922;-10
2022/11/06 10:46:09;;;;;;;;;;;18.90;71.60;;;;;;5112779;28;19947;-10
2022/11/06 10:48:44;;;;;;;;;;;19.00;71.90;;;;;;5114662;28;20161;-9
2022/11/06 10:51:19;;;;;;;;;;;19.00;72.10;;;;;;5096839;28;20014;-11
2022/11/06 10:53:51;;;;;;;;;;;19.00;72.10;;;;;;5109578;28;19960;-10
2022/11/06 10:56:32;;;;;;;;;;;18.90;72.20;;;;;;5112569;28;19908;-10
2022/11/06 10:58:58;;;;;;;;;;;18.90;72.60;;;;;;5111237;28;19916;-10
2022/11/06 11:01:23;;;;;;;;;;;18.80;73.00;;;;;;5111621;28;19934;-11
2022/11/06 11:03:50;;;;;;;;;;;18.80;75.20;;;;;;5111214;28;20298;-10
2022/11/06 11:06:16;;;;;;;;;;;18.80;77.50;;;;;;5111699;28;19961;-10
2022/11/06 11:08:46;;;;;;;;;;;18.80;78.00;;;;;;5111479;28;19942;-11
2022/11/06 11:11:11;;;;;;;;;;;18.80;78.00;;;;;;5112775;28;20138;-9
2022/11/06 11:13:37;;;;;;;;;;;18.70;77.90;;;;;;5109436;28;19938;-11
2022/11/06 11:16:03;;;;;;;;;;;18.70;78.30;;;;;;5112708;28;19972;-10
2022/11/06 11:18:33;;;;;;;;;;;18.70;78.40;;;;;;5112221;28;19907;-9
2022/11/06 11:21:12;;;;;;;;;;;18.70;78.50;;;;;;5110954;28;19907;-10
2022/11/06 11:23:38;;;;;;;;;;;18.60;79.10;;;;;;5112263;28;20002;-11
2022/11/06 11:26:12;;;;;;;;;;;18.50;79.50;;;;;;5111736;28;20031;-10
2022/11/06 11:28:39;;;;;;;;;;;18.50;80.10;;;;;;5111075;28;20004;-12
2022/11/06 11:31:08;;;;;;;;;;;18.40;80.20;;;;;;5110131;28;19916;-10
2022/11/06 11:33:34;;;;;;;;;;;18.40;80.90;;;;;;5110283;28;19908;-10
2022/11/06 11:36:01;;;;;;;;;;;18.40;81.00;;;;;;5107695;28;20280;-9
2022/11/06 11:38:27;;;;;;;;;;;18.30;81.40;;;;;;5109511;28;19908;-9
2022/11/06 11:41:04;;;;;;;;;;;18.30;81.70;;;;;;5108139;28;19918;-10
2022/11/06 11:43:29;;;;;;;;;;;18.30;82.00;;;;;;5109546;28;20161;-10
2022/11/06 11:46:02;;;;;;;;;;;18.30;82.40;;;;;;5109085;28;19920;-8
2022/11/06 11:48:47;;;;;;;;;;;18.30;82.10;;;;;;5107094;28;20003;-10
2022/11/06 11:51:22;;;;;;;;;;;18.30;82.60;;;;;;5108655;28;19923;-11
2022/11/06 11:53:49;;;;;;;;;;;18.30;82.70;;;;;;5109160;28;19938;-10
2022/11/06 11:56:16;;;;;;;;;;;18.20;82.90;;;;;;5109733;28;20090;-10
2022/11/06 11:58:48;;;;;;;;;;;18.20;83.00;;;;;;5110341;28;20184;-10
2022/11/06 12:01:13;;;;;;;;;;;18.20;83.30;;;;;;5108681;28;19916;-10
2022/11/06 12:03:40;;;;;;;;;;;18.20;83.50;;;;;;5110247;28;20108;-10
2022/11/06 12:06:11;;;;;;;;;;;18.10;83.50;;;;;;5110104;28;20283;-10
2022/11/06 12:08:38;;;;;;;;;;;18.10;83.40;;;;;;5111731;28;19919;-10
2022/11/06 12:11:04;;;;;;;;;;;18.00;83.90;;;;;;5110360;28;19965;-10
2022/11/06 12:14:08;;;;;;;;;;;18.00;84.90;;;;;;5113721;28;19962;-10
2022/11/06 12:16:33;;;;;;;;;;;17.90;84.40;;;;;;5075711;28;19919;-10
2022/11/06 12:19:00;;;;;;;;;;;17.90;84.50;;;;;;5079078;28;19917;-9
2022/11/06 12:21:28;;;;;;;;;;;17.90;84.50;;;;;;5085802;28;19908;-11
2022/11/06 12:24:13;;;;;;;;;;;17.90;84.80;;;;;;5086960;28;19938;-10
2022/11/06 12:26:39;;;;;;;;;;;17.80;84.70;;;;;;5088266;28;20244;-10
2022/11/06 12:29:11;;;;;;;;;;;17.80;84.50;;;;;;5089903;28;20402;-10
2022/11/06 12:31:40;;;;;;;;;;;17.80;84.60;;;;;;5090725;28;20125;-10
2022/11/06 12:34:13;;;;;;;;;;;17.80;84.80;;;;;;5089530;28;20144;-10
2022/11/06 12:36:43;;;;;;;;;;;17.80;84.80;;;;;;5090256;28;20215;-9
2022/11/06 12:39:21;;;;;;;;;;;17.80;84.90;;;;;;5089560;28;19919;-10
2022/11/06 12:41:48;;;;;;;;;;;17.80;85.00;;;;;;5086910;28;19908;-10
2022/11/06 12:44:15;;;;;;;;;;;17.70;84.90;;;;;;5088500;28;19908;-11
2022/11/06 12:46:40;;;;;;;;;;;17.70;85.40;;;;;;5086720;28;19919;-9
2022/11/06 12:49:09;;;;;;;;;;;17.70;85.60;;;;;;5085858;28;19908;-9
2022/11/06 12:51:40;;;;;;;;;;;17.60;85.70;;;;;;5095078;28;20367;-11
2022/11/06 12:54:36;;;;;;;;;;;17.60;85.50;;;;;;5096834;28;19908;-10
2022/11/06 12:57:07;;;;;;;;;;;17.60;85.90;;;;;;5090162;28;19943;-10
2022/11/06 12:59:33;;;;;;;;;;;17.60;86.30;;;;;;5088404;28;19919;-11
2022/11/06 13:02:10;;;;;;;;;;;17.50;86.50;;;;;;5089294;28;19909;-11
2022/11/06 13:04:36;;;;;;;;;;;17.50;86.80;;;;;;5089084;28;20181;-11
2022/11/06 13:07:20;;;;;;;;;;;17.50;87.00;;;;;;5090418;28;20293;-10
2022/11/06 13:09:45;;;;;;;;;;;17.50;87.30;;;;;;5090089;28;20181;-10
2022/11/06 13:12:14;;;;;;;;;;;17.40;88.00;;;;;;5087789;28;20268;-10
2022/11/06 13:14:58;;;;;;;;;;;17.40;87.80;;;;;;5087426;28;20259;-10
2022/11/06 13:17:28;;;;;;;;;;;17.40;88.10;;;;;;5085927;28;19969;-9
2022/11/06 13:20:20;;;;;;;;;;;17.30;88.40;;;;;;5086898;28;20551;-9
2022/11/06 13:23:09;;;;;;;;;;;17.30;88.50;;;;;;5078892;28;19940;-10
2022/11/06 13:25:42;;;;;;;;;;;17.30;89.00;;;;;;5098265;28;19914;-10
2022/11/06 13:28:23;;;;;;;;;;;17.30;89.50;;;;;;5094822;28;19909;-12
2022/11/06 13:30:49;;;;;;;;;;;17.20;89.70;;;;;;5090865;28;19915;-10
2022/11/06 13:33:24;;;;;;;;;;;17.20;89.90;;;;;;5090470;28;19912;-10
2022/11/06 13:35:50;;;;;;;;;;;17.20;90.00;;;;;;5093090;28;19969;-10
2022/11/06 13:38:31;;;;;;;;;;;17.20;90.00;;;;;;5093301;28;20315;-9
2022/11/06 13:41:02;;;;;;;;;;;17.20;90.00;;;;;;5092634;28;19908;-10
2022/11/06 13:43:32;;;;;;;;;;;17.20;90.00;;;;;;5088622;28;20255;-10
2022/11/06 13:46:04;;;;;;;;;;;17.20;90.00;;;;;;5090476;28;19977;-11
2022/11/06 13:48:34;;;;;;;;;;;17.20;90.00;;;;;;5089147;28;20014;-9
2022/11/06 13:51:07;;;;;;;;;;;17.20;90.00;;;;;;5089423;28;19916;-9
2022/11/06 13:53:32;;;;;;;;;;;17.20;90.00;;;;;;5108323;28;19908;-9
2022/11/06 13:56:04;;;;;;;;;;;17.20;90.20;;;;;;5092066;28;19908;-10
2022/11/06 13:58:36;;;;;;;;;;;17.10;90.10;;;;;;5092950;28;19908;-11
2022/11/06 14:01:04;;;;;;;;;;;17.10;90.30;;;;;;5093368;28;19915;-10
2022/11/06 14:03:30;;;;;;;;;;;17.10;90.30;;;;;;5095007;28;19985;-10
2022/11/06 14:05:55;;;;;;;;;;;17.10;90.40;;;;;;5094186;28;19952;-9
2022/11/06 14:08:38;;;;;;;;;;;17.10;90.40;;;;;;5104953;28;20289;-9
2022/11/06 14:11:06;;;;;;;;;;;17.20;90.40;;;;;;5110138;28;20100;-10
2022/11/06 14:13:33;;;;;;;;;;;17.10;90.40;;;;;;5112993;28;19969;-11
2022/11/06 14:16:04;;;;;;;;;;;17.20;90.20;;;;;;5110829;28;19948;-10
2022/11/06 14:18:30;;;;;;;;;;;17.20;90.30;;;;;;5111794;28;19907;-10
2022/11/06 14:21:14;;;;;;;;;;;17.20;90.30;;;;;;5114007;28;19912;-9
2022/11/06 14:23:43;;;;;;;;;;;17.20;90.30;;;;;;5115161;28;19972;-9
2022/11/06 14:26:12;;;;;;;;;;;17.20;90.20;;;;;;5113398;28;19996;-10
2022/11/06 14:28:41;;;;;;;;;;;17.20;90.20;;;;;;5113737;28;19969;-10
2022/11/06 14:31:08;;;;;;;;;;;17.20;90.20;;;;;;5112381;28;19911;-10
2022/11/06 14:33:40;;;;;;;;;;;17.20;90.20;;;;;;5109058;28;19908;-10
2022/11/06 14:36:35;;;;;;;;;;;17.20;90.00;;;;;;5104416;28;19936;-10
2022/11/06 14:39:02;;;;;;;;;;;17.20;90.00;;;;;;5097790;28;20239;-9
2022/11/06 14:41:34;;;;;;;;;;;17.20;89.90;;;;;;5111021;28;19917;-10